sensor_id;sensor_type;location;lat;lon;timestamp;temperature;humidity
1678;DHT22;6034;46.864;15.216;2022-10-16T06:15:31;13.10;99.90
1678;DHT22;6034;46.864;15.216;2022-10-16T06:17:58;13.00;99.90
1678;DHT22;6034;46.864;15.216;2022-10-16T06:20:25;13.20;99.90
1678;DHT22;6034;46.864;15.216;2022-10-16T06:22:52;13.20;99.90
1678;DHT22;6034;46.864;15.216;2022-10-16T06:25:20;13.30;99.90
1678;DHT22;6034;46.864;15.216;2022-10-16T06:27:46;13.30;99.90
1678;DHT22;6034;46.864;15.216;2022-10-16T06:30:13;13.40;99.90
1678;DHT22;6034;46.864;15.216;2022-10-16T06:32:42;13.40;99.90
1678;DHT22;6034;46.864;15.216;2022-10-16T06:35:09;13.50;99.90
1678;DHT22;6034;46.864;15.216;2022-10-16T06:37:36;13.50;99.90
1678;DHT22;6034;46.864;15.216;2022-10-16T06:40:03;13.50;99.90
1678;DHT22;6034;46.864;15.216;2022-10-16T06:42:30;13.50;99.90
1678;DHT22;6034;46.864;15.216;2022-10-16T06:44:57;13.60;99.90
1678;DHT22;6034;46.864;15.216;2022-10-16T06:47:24;13.60;99.90
1678;DHT22;6034;46.864;15.216;2022-10-16T06:49:53;13.70;99.90
1678;DHT22;6034;46.864;15.216;2022-10-16T06:52:20;13.80;99.90
1678;DHT22;6034;46.864;15.216;2022-10-16T06:54:47;13.60;99.90
1678;DHT22;6034;46.864;15.216;2022-10-16T06:57:15;13.60;99.90
1678;DHT22;6034;46.864;15.216;2022-10-16T06:59:42;13.70;99.90
1678;DHT22;6034;46.864;15.216;2022-10-16T07:02:09;13.60;99.90
1678;DHT22;6034;46.864;15.216;2022-10-16T07:04:36;13.40;99.90
1678;DHT22;6034;46.864;15.216;2022-10-16T07:07:04;13.60;99.90
1678;DHT22;6034;46.864;15.216;2022-10-16T07:09:31;13.70;99.90
1678;DHT22;6034;46.864;15.216;2022-10-16T07:11:58;13.60;99.90
1678;DHT22;6034;46.864;15.216;2022-10-16T07:14:24;13.70;99.90
1678;DHT22;6034;46.864;15.216;2022-10-16T07:16:51;13.70;99.90
1678;DHT22;6034;46.864;15.216;2022-10-16T07:19:19;13.90;99.90
1678;DHT22;6034;46.864;15.216;2022-10-16T07:21:46;14.00;99.90
1678;DHT22;6034;46.864;15.216;2022-10-16T07:24:15;14.20;99.90
1678;DHT22;6034;46.864;15.216;2022-10-16T07:26:43;14.30;99.90
1678;DHT22;6034;46.864;15.216;2022-10-16T07:29:12;12.50;99.90
1678;DHT22;6034;46.864;15.216;2022-10-16T07:31:39;14.40;99.90
1678;DHT22;6034;46.864;15.216;2022-10-16T07:34:06;14.60;99.90
1678;DHT22;6034;46.864;15.216;2022-10-16T07:36:33;14.60;99.90
1678;DHT22;6034;46.864;15.216;2022-10-16T07:39:00;14.80;99.90
1678;DHT22;6034;46.864;15.216;2022-10-16T07:41:29;14.90;99.90
1678;DHT22;6034;46.864;15.216;2022-10-16T07:43:58;15.10;99.90
1678;DHT22;6034;46.864;15.216;2022-10-16T07:46:26;15.20;99.90
1678;DHT22;6034;46.864;15.216;2022-10-16T07:48:53;15.30;99.90
1678;DHT22;6034;46.864;15.216;2022-10-16T07:51:21;15.40;99.90
1678;DHT22;6034;46.864;15.216;2022-10-16T07:53:48;15.50;99.90
1678;DHT22;6034;46.864;15.216;2022-10-16T07:56:16;15.50;99.90
1678;DHT22;6034;46.864;15.216;2022-10-16T07:58:45;15.60;99.90
1678;DHT22;6034;46.864;15.216;2022-10-16T08:01:13;15.70;99.90
1678;DHT22;6034;46.864;15.216;2022-10-16T08:03:41;15.80;99.90
1678;DHT22;6034;46.864;15.216;2022-10-16T08:06:08;15.90;99.90
1678;DHT22;6034;46.864;15.216;2022-10-16T08:08:35;16.00;99.90
1678;DHT22;6034;46.864;15.216;2022-10-16T08:11:02;16.00;99.90
1678;DHT22;6034;46.864;15.216;2022-10-16T08:13:29;16.00;99.90
1678;DHT22;6034;46.864;15.216;2022-10-16T08:15:57;16.10;99.90
1678;DHT22;6034;46.864;15.216;2022-10-16T08:18:24;16.00;99.90
1678;DHT22;6034;46.864;15.216;2022-10-16T08:20:55;16.10;99.90
1678;DHT22;6034;46.864;15.216;2022-10-16T08:23:22;15.80;99.90
1678;DHT22;6034;46.864;15.216;2022-10-16T08:25:52;16.00;99.90
1678;DHT22;6034;46.864;15.216;2022-10-16T08:28:19;16.20;99.90
1678;DHT22;6034;46.864;15.216;2022-10-16T08:30:46;16.00;99.90
1678;DHT22;6034;46.864;15.216;2022-10-16T08:33:14;16.00;99.90
1678;DHT22;6034;46.864;15.216;2022-10-16T08:35:41;16.10;99.90
1678;DHT22;6034;46.864;15.216;2022-10-16T08:38:08;16.20;99.90
1678;DHT22;6034;46.864;15.216;2022-10-16T08:40:36;16.40;99.90
1678;DHT22;6034;46.864;15.216;2022-10-16T08:43:07;16.50;99.90
1678;DHT22;6034;46.864;15.216;2022-10-16T08:45:39;16.60;99.90
1678;DHT22;6034;46.864;15.216;2022-10-16T08:48:16;16.70;99.90
1678;DHT22;6034;46.864;15.216;2022-10-16T08:50:44;16.90;99.90
1678;DHT22;6034;46.864;15.216;2022-10-16T08:53:15;17.00;99.90
1678;DHT22;6034;46.864;15.216;2022-10-16T08:55:43;17.10;99.90
1678;DHT22;6034;46.864;15.216;2022-10-16T08:58:12;17.30;99.90
1678;DHT22;6034;46.864;15.216;2022-10-16T09:00:39;17.30;99.90
1678;DHT22;6034;46.864;15.216;2022-10-16T09:03:09;17.40;99.90
1678;DHT22;6034;46.864;15.216;2022-10-16T09:08:24;17.60;99.90
1678;DHT22;6034;46.864;15.216;2022-10-16T09:10:56;17.70;99.90
1678;DHT22;6034;46.864;15.216;2022-10-16T09:13:26;17.70;99.90
1678;DHT22;6034;46.864;15.216;2022-10-16T09:15:55;17.80;99.90
1678;DHT22;6034;46.864;15.216;2022-10-16T09:18:25;17.80;99.90
1678;DHT22;6034;46.864;15.216;2022-10-16T09:20:55;18.00;99.90
1678;DHT22;6034;46.864;15.216;2022-10-16T09:23:26;17.90;99.90
1678;DHT22;6034;46.864;15.216;2022-10-16T09:25:54;17.90;99.90
1678;DHT22;6034;46.864;15.216;2022-10-16T09:28:22;18.10;99.90
1678;DHT22;6034;46.864;15.216;2022-10-16T09:30:49;18.10;99.90
1678;DHT22;6034;46.864;15.216;2022-10-16T09:33:17;17.90;99.90
1678;DHT22;6034;46.864;15.216;2022-10-16T09:35:45;18.20;99.90
1678;DHT22;6034;46.864;15.216;2022-10-16T09:38:23;18.30;99.90
1678;DHT22;6034;46.864;15.216;2022-10-16T09:40:52;18.40;99.90
1678;DHT22;6034;46.864;15.216;2022-10-16T09:43:21;18.50;99.90
1678;DHT22;6034;46.864;15.216;2022-10-16T09:45:58;18.60;99.90
1678;DHT22;6034;46.864;15.216;2022-10-16T09:48:27;18.60;99.90
1678;DHT22;6034;46.864;15.216;2022-10-16T09:50:55;18.70;99.90
1678;DHT22;6034;46.864;15.216;2022-10-16T09:53:22;18.80;99.90
1678;DHT22;6034;46.864;15.216;2022-10-16T09:55:49;18.90;99.90
1678;DHT22;6034;46.864;15.216;2022-10-16T09:58:18;18.90;99.90
1678;DHT22;6034;46.864;15.216;2022-10-16T10:00:48;18.90;99.90
1678;DHT22;6034;46.864;15.216;2022-10-16T10:03:19;18.90;99.90
1678;DHT22;6034;46.864;15.216;2022-10-16T10:05:53;18.60;99.90
1678;DHT22;6034;46.864;15.216;2022-10-16T10:08:20;18.70;99.90
1678;DHT22;6034;46.864;15.216;2022-10-16T10:10:47;18.90;99.90
1678;DHT22;6034;46.864;15.216;2022-10-16T10:13:21;19.00;99.90
1678;DHT22;6034;46.864;15.216;2022-10-16T10:15:49;19.10;99.90
1678;DHT22;6034;46.864;15.216;2022-10-16T10:18:17;19.10;99.90
1678;DHT22;6034;46.864;15.216;2022-10-16T10:20:45;18.90;99.90
1678;DHT22;6034;46.864;15.216;2022-10-16T10:23:20;19.10;99.90
1678;DHT22;6034;46.864;15.216;2022-10-16T10:25:49;19.20;99.90
1678;DHT22;6034;46.864;15.216;2022-10-16T10:28:30;18.90;99.90
1678;DHT22;6034;46.864;15.216;2022-10-16T10:31:01;19.10;99.90
1678;DHT22;6034;46.864;15.216;2022-10-16T10:33:31;19.30;99.90
1678;DHT22;6034;46.864;15.216;2022-10-16T10:36:05;19.40;99.90
1678;DHT22;6034;46.864;15.216;2022-10-16T10:38:38;19.50;99.90
1678;DHT22;6034;46.864;15.216;2022-10-16T10:41:10;19.40;99.90
1678;DHT22;6034;46.864;15.216;2022-10-16T10:43:47;19.60;99.90
1678;DHT22;6034;46.864;15.216;2022-10-16T10:46:19;19.50;99.90
1678;DHT22;6034;46.864;15.216;2022-10-16T10:48:53;19.50;99.90
1678;DHT22;6034;46.864;15.216;2022-10-16T10:51:22;19.50;99.90
1678;DHT22;6034;46.864;15.216;2022-10-16T10:53:56;19.50;99.90
1678;DHT22;6034;46.864;15.216;2022-10-16T10:56:41;19.60;99.90
1678;DHT22;6034;46.864;15.216;2022-10-16T11:01:57;19.80;99.90
1678;DHT22;6034;46.864;15.216;2022-10-16T11:04:45;19.90;99.90
1678;DHT22;6034;46.864;15.216;2022-10-16T11:07:17;19.90;99.90
1678;DHT22;6034;46.864;15.216;2022-10-16T11:09:46;20.10;99.90
1678;DHT22;6034;46.864;15.216;2022-10-16T11:12:15;20.10;99.90
1678;DHT22;6034;46.864;15.216;2022-10-16T11:14:45;20.10;99.90
1678;DHT22;6034;46.864;15.216;2022-10-16T11:17:17;20.10;99.90
1678;DHT22;6034;46.864;15.216;2022-10-16T11:19:45;20.20;99.90
1678;DHT22;6034;46.864;15.216;2022-10-16T11:22:16;20.20;99.90
1678;DHT22;6034;46.864;15.216;2022-10-16T11:24:45;20.30;99.90
1678;DHT22;6034;46.864;15.216;2022-10-16T11:27:15;20.30;99.90
1678;DHT22;6034;46.864;15.216;2022-10-16T11:29:44;20.30;99.90
1678;DHT22;6034;46.864;15.216;2022-10-16T11:32:17;20.30;99.90
1678;DHT22;6034;46.864;15.216;2022-10-16T11:34:47;20.30;99.90
1678;DHT22;6034;46.864;15.216;2022-10-16T11:37:17;20.30;99.90
1678;DHT22;6034;46.864;15.216;2022-10-16T11:39:45;20.30;99.90
1678;DHT22;6034;46.864;15.216;2022-10-16T11:42:13;20.30;99.90
1678;DHT22;6034;46.864;15.216;2022-10-16T11:44:45;20.20;99.90
1678;DHT22;6034;46.864;15.216;2022-10-16T11:47:23;20.30;99.90
1678;DHT22;6034;46.864;15.216;2022-10-16T11:49:51;20.20;99.90
1678;DHT22;6034;46.864;15.216;2022-10-16T11:52:20;20.20;99.90
1678;DHT22;6034;46.864;15.216;2022-10-16T11:54:51;20.10;99.90
1678;DHT22;6034;46.864;15.216;2022-10-16T11:57:19;20.20;99.90
1678;DHT22;6034;46.864;15.216;2022-10-16T11:59:48;20.20;99.90
1678;DHT22;6034;46.864;15.216;2022-10-16T12:02:33;20.10;99.90
1678;DHT22;6034;46.864;15.216;2022-10-16T12:05:17;20.10;99.90
1678;DHT22;6034;46.864;15.216;2022-10-16T12:07:47;20.00;99.90
1678;DHT22;6034;46.864;15.216;2022-10-16T12:10:20;20.10;99.90
1678;DHT22;6034;46.864;15.216;2022-10-16T12:12:48;20.20;99.90
1678;DHT22;6034;46.864;15.216;2022-10-16T12:15:19;20.20;99.90
1678;DHT22;6034;46.864;15.216;2022-10-16T12:17:48;20.20;99.90
1678;DHT22;6034;46.864;15.216;2022-10-16T12:20:23;20.10;99.90
1678;DHT22;6034;46.864;15.216;2022-10-16T12:22:52;20.30;99.90
1678;DHT22;6034;46.864;15.216;2022-10-16T12:25:24;20.30;99.90
1678;DHT22;6034;46.864;15.216;2022-10-16T12:27:57;20.30;99.90
1678;DHT22;6034;46.864;15.216;2022-10-16T12:30:25;20.40;99.90
1678;DHT22;6034;46.864;15.216;2022-10-16T12:32:54;20.40;99.90
1678;DHT22;6034;46.864;15.216;2022-10-16T12:35:22;20.40;99.90
1678;DHT22;6034;46.864;15.216;2022-10-16T12:37:49;20.50;99.90
1678;DHT22;6034;46.864;15.216;2022-10-16T12:40:23;20.40;99.90
1678;DHT22;6034;46.864;15.216;2022-10-16T12:42:51;20.40;99.90
1678;DHT22;6034;46.864;15.216;2022-10-16T12:45:28;20.60;99.90
1678;DHT22;6034;46.864;15.216;2022-10-16T12:47:58;20.60;99.90
1678;DHT22;6034;46.864;15.216;2022-10-16T12:50:26;20.50;99.90
1678;DHT22;6034;46.864;15.216;2022-10-16T12:52:53;20.60;99.90
1678;DHT22;6034;46.864;15.216;2022-10-16T12:55:21;20.50;99.90
1678;DHT22;6034;46.864;15.216;2022-10-16T12:57:55;20.50;99.90
1678;DHT22;6034;46.864;15.216;2022-10-16T13:00:26;20.50;99.90
1678;DHT22;6034;46.864;15.216;2022-10-16T13:03:17;20.50;99.90
1678;DHT22;6034;46.864;15.216;2022-10-16T13:05:52;20.60;99.90
1678;DHT22;6034;46.864;15.216;2022-10-16T13:08:32;20.60;99.90
1678;DHT22;6034;46.864;15.216;2022-10-16T13:11:03;20.60;99.90
1678;DHT22;6034;46.864;15.216;2022-10-16T13:13:39;20.60;99.90
1678;DHT22;6034;46.864;15.216;2022-10-16T13:16:10;20.60;99.90
1678;DHT22;6034;46.864;15.216;2022-10-16T13:18:46;20.60;99.90
1678;DHT22;6034;46.864;15.216;2022-10-16T13:21:22;20.60;99.90
1678;DHT22;6034;46.864;15.216;2022-10-16T13:23:53;20.60;99.90
1678;DHT22;6034;46.864;15.216;2022-10-16T13:26:27;20.50;99.90
1678;DHT22;6034;46.864;15.216;2022-10-16T13:28:58;20.60;99.90
1678;DHT22;6034;46.864;15.216;2022-10-16T13:31:25;20.50;99.90
1678;DHT22;6034;46.864;15.216;2022-10-16T13:33:54;20.60;99.90
1678;DHT22;6034;46.864;15.216;2022-10-16T13:36:24;20.60;99.90
1678;DHT22;6034;46.864;15.216;2022-10-16T13:39:06;20.50;99.90
1678;DHT22;6034;46.864;15.216;2022-10-16T13:41:36;20.60;99.90
1678;DHT22;6034;46.864;15.216;2022-10-16T13:44:03;20.60;99.90
1678;DHT22;6034;46.864;15.216;2022-10-16T13:46:31;20.60;99.90
1678;DHT22;6034;46.864;15.216;2022-10-16T13:49:02;20.60;99.90
1678;DHT22;6034;46.864;15.216;2022-10-16T13:51:29;20.60;99.90
1678;DHT22;6034;46.864;15.216;2022-10-16T13:53:57;20.60;99.90
1678;DHT22;6034;46.864;15.216;2022-10-16T13:56:25;20.50;99.90
1678;DHT22;6034;46.864;15.216;2022-10-16T13:58:59;20.60;99.90
1678;DHT22;6034;46.864;15.216;2022-10-16T14:01:27;20.60;99.90
1678;DHT22;6034;46.864;15.216;2022-10-16T14:04:00;20.60;99.90
1678;DHT22;6034;46.864;15.216;2022-10-16T14:06:28;20.60;99.90
1678;DHT22;6034;46.864;15.216;2022-10-16T14:08:57;20.50;99.90
1678;DHT22;6034;46.864;15.216;2022-10-16T14:11:26;20.60;99.90
1678;DHT22;6034;46.864;15.216;2022-10-16T14:13:54;20.50;99.90
1678;DHT22;6034;46.864;15.216;2022-10-16T14:16:21;20.40;99.90
1678;DHT22;6034;46.864;15.216;2022-10-16T14:18:52;20.50;99.90
1678;DHT22;6034;46.864;15.216;2022-10-16T14:21:23;20.50;99.90
1678;DHT22;6034;46.864;15.216;2022-10-16T14:23:50;20.40;99.90
1678;DHT22;6034;46.864;15.216;2022-10-16T14:26:18;20.30;99.90
1678;DHT22;6034;46.864;15.216;2022-10-16T14:28:46;20.20;99.90
1678;DHT22;6034;46.864;15.216;2022-10-16T14:31:24;20.30;99.90
1678;DHT22;6034;46.864;15.216;2022-10-16T14:33:51;20.30;99.90
1678;DHT22;6034;46.864;15.216;2022-10-16T14:36:18;20.30;99.90
1678;DHT22;6034;46.864;15.216;2022-10-16T14:38:49;20.30;99.90
1678;DHT22;6034;46.864;15.216;2022-10-16T14:41:21;20.30;99.90
1678;DHT22;6034;46.864;15.216;2022-10-16T14:43:49;20.30;99.90
1678;DHT22;6034;46.864;15.216;2022-10-16T14:46:20;20.30;99.90
1678;DHT22;6034;46.864;15.216;2022-10-16T14:48:52;20.20;99.90
1678;DHT22;6034;46.864;15.216;2022-10-16T14:51:21;20.10;99.90
1678;DHT22;6034;46.864;15.216;2022-10-16T14:53:50;20.00;99.90
1678;DHT22;6034;46.864;15.216;2022-10-16T14:56:18;20.10;99.90
1678;DHT22;6034;46.864;15.216;2022-10-16T14:58:46;19.90;99.90
1678;DHT22;6034;46.864;15.216;2022-10-16T15:01:13;19.80;99.90
1678;DHT22;6034;46.864;15.216;2022-10-16T15:03:40;19.90;99.90
1678;DHT22;6034;46.864;15.216;2022-10-16T15:06:08;19.80;99.90
1678;DHT22;6034;46.864;15.216;2022-10-16T15:08:36;19.60;99.90
1678;DHT22;6034;46.864;15.216;2022-10-16T15:11:04;19.60;99.90
1678;DHT22;6034;46.864;15.216;2022-10-16T15:13:31;19.70;99.90
1678;DHT22;6034;46.864;15.216;2022-10-16T15:15:58;19.70;99.90
1678;DHT22;6034;46.864;15.216;2022-10-16T15:18:25;19.70;99.90
1678;DHT22;6034;46.864;15.216;2022-10-16T15:20:52;19.70;99.90
1678;DHT22;6034;46.864;15.216;2022-10-16T15:23:20;19.70;99.90
1678;DHT22;6034;46.864;15.216;2022-10-16T15:25:48;19.60;99.90
1678;DHT22;6034;46.864;15.216;2022-10-16T15:28:17;19.60;99.90
1678;DHT22;6034;46.864;15.216;2022-10-16T15:30:44;19.50;99.90
1678;DHT22;6034;46.864;15.216;2022-10-16T15:33:12;19.50;99.90
1678;DHT22;6034;46.864;15.216;2022-10-16T15:35:39;19.30;99.90
1678;DHT22;6034;46.864;15.216;2022-10-16T15:38:08;19.30;99.90
1678;DHT22;6034;46.864;15.216;2022-10-16T15:40:36;19.30;99.90
1678;DHT22;6034;46.864;15.216;2022-10-16T15:43:03;19.20;99.90
1678;DHT22;6034;46.864;15.216;2022-10-16T15:45:31;19.20;99.90
1678;DHT22;6034;46.864;15.216;2022-10-16T15:47:58;19.20;99.90
1678;DHT22;6034;46.864;15.216;2022-10-16T15:50:25;19.10;99.90
1678;DHT22;6034;46.864;15.216;2022-10-16T15:52:52;19.00;99.90
1678;DHT22;6034;46.864;15.216;2022-10-16T15:55:18;19.00;99.90
1678;DHT22;6034;46.864;15.216;2022-10-16T15:57:45;19.00;99.90
1678;DHT22;6034;46.864;15.216;2022-10-16T16:00:13;18.90;99.90
1678;DHT22;6034;46.864;15.216;2022-10-16T16:02:42;18.80;99.90
1678;DHT22;6034;46.864;15.216;2022-10-16T16:05:09;18.70;99.90
1678;DHT22;6034;46.864;15.216;2022-10-16T16:07:37;18.80;99.90
1678;DHT22;6034;46.864;15.216;2022-10-16T16:10:05;18.70;99.90
1678;DHT22;6034;46.864;15.216;2022-10-16T16:12:32;18.70;99.90
1678;DHT22;6034;46.864;15.216;2022-10-16T16:14:59;18.70;99.90
1678;DHT22;6034;46.864;15.216;2022-10-16T16:17:26;18.50;99.90
1678;DHT22;6034;46.864;15.216;2022-10-16T16:19:55;18.50;99.90
1678;DHT22;6034;46.864;15.216;2022-10-16T16:22:22;18.40;99.90
1678;DHT22;6034;46.864;15.216;2022-10-16T16:24:49;18.40;99.90
1678;DHT22;6034;46.864;15.216;2022-10-16T16:27:16;18.40;99.90
1678;DHT22;6034;46.864;15.216;2022-10-16T16:29:45;18.30;99.90
1678;DHT22;6034;46.864;15.216;2022-10-16T16:32:13;18.20;99.90
1678;DHT22;6034;46.864;15.216;2022-10-16T16:34:40;18.20;99.90
1678;DHT22;6034;46.864;15.216;2022-10-16T16:37:08;18.20;99.90
1678;DHT22;6034;46.864;15.216;2022-10-16T16:39:35;18.10;99.90
1678;DHT22;6034;46.864;15.216;2022-10-16T16:42:02;18.10;99.90
1678;DHT22;6034;46.864;15.216;2022-10-16T16:44:31;18.10;99.90
1678;DHT22;6034;46.864;15.216;2022-10-16T16:46:58;17.90;99.90
1678;DHT22;6034;46.864;15.216;2022-10-16T16:49:25;18.00;99.90
1678;DHT22;6034;46.864;15.216;2022-10-16T16:51:52;17.90;99.90
1678;DHT22;6034;46.864;15.216;2022-10-16T16:54:20;17.90;99.90
1678;DHT22;6034;46.864;15.216;2022-10-16T16:56:47;18.00;99.90
1678;DHT22;6034;46.864;15.216;2022-10-16T16:59:15;17.90;99.90
1678;DHT22;6034;46.864;15.216;2022-10-16T17:01:43;17.80;99.90
1678;DHT22;6034;46.864;15.216;2022-10-16T17:04:10;17.80;99.90
1678;DHT22;6034;46.864;15.216;2022-10-16T17:06:37;17.70;99.90
1678;DHT22;6034;46.864;15.216;2022-10-16T17:09:04;17.70;99.90
1678;DHT22;6034;46.864;15.216;2022-10-16T17:11:33;17.70;99.90
1678;DHT22;6034;46.864;15.216;2022-10-16T17:14:01;17.60;99.90
1678;DHT22;6034;46.864;15.216;2022-10-16T17:16:29;17.60;99.90
1678;DHT22;6034;46.864;15.216;2022-10-16T17:18:59;17.50;99.90
1678;DHT22;6034;46.864;15.216;2022-10-16T17:21:26;17.60;99.90
1678;DHT22;6034;46.864;15.216;2022-10-16T17:23:55;17.60;99.90
1678;DHT22;6034;46.864;15.216;2022-10-16T17:26:22;17.60;99.90
1678;DHT22;6034;46.864;15.216;2022-10-16T17:28:52;17.60;99.90
1678;DHT22;6034;46.864;15.216;2022-10-16T17:31:20;17.40;99.90
1678;DHT22;6034;46.864;15.216;2022-10-16T17:33:50;17.30;99.90
1678;DHT22;6034;46.864;15.216;2022-10-16T17:36:17;17.40;99.90
1678;DHT22;6034;46.864;15.216;2022-10-16T17:38:44;17.30;99.90
1678;DHT22;6034;46.864;15.216;2022-10-16T17:41:12;17.20;99.90
1678;DHT22;6034;46.864;15.216;2022-10-16T17:43:39;17.20;99.90
1678;DHT22;6034;46.864;15.216;2022-10-16T17:46:07;17.10;99.90
1678;DHT22;6034;46.864;15.216;2022-10-16T17:48:38;17.10;99.90
1678;DHT22;6034;46.864;15.216;2022-10-16T17:51:05;17.20;99.90
1678;DHT22;6034;46.864;15.216;2022-10-16T17:53:32;17.20;99.90
1678;DHT22;6034;46.864;15.216;2022-10-16T17:56:03;17.30;99.90
1678;DHT22;6034;46.864;15.216;2022-10-16T17:58:30;17.40;99.90
1678;DHT22;6034;46.864;15.216;2022-10-16T18:00:57;17.20;99.90
1678;DHT22;6034;46.864;15.216;2022-10-16T18:03:26;17.20;99.90
1678;DHT22;6034;46.864;15.216;2022-10-16T18:05:53;17.20;99.90
1678;DHT22;6034;46.864;15.216;2022-10-16T18:08:20;17.30;99.90
1678;DHT22;6034;46.864;15.216;2022-10-16T18:10:48;17.30;99.90
1678;DHT22;6034;46.864;15.216;2022-10-16T18:13:15;17.10;99.90
1678;DHT22;6034;46.864;15.216;2022-10-16T18:15:42;17.10;99.90
1678;DHT22;6034;46.864;15.216;2022-10-16T18:18:10;17.10;99.90
1678;DHT22;6034;46.864;15.216;2022-10-16T18:20:39;16.90;99.90
1678;DHT22;6034;46.864;15.216;2022-10-16T18:23:06;16.70;99.90
1678;DHT22;6034;46.864;15.216;2022-10-16T18:25:34;16.60;99.90
1678;DHT22;6034;46.864;15.216;2022-10-16T18:28:01;16.70;99.90
1678;DHT22;6034;46.864;15.216;2022-10-16T18:30:28;16.80;99.90
1678;DHT22;6034;46.864;15.216;2022-10-16T18:32:55;16.90;99.90
1678;DHT22;6034;46.864;15.216;2022-10-16T18:35:22;16.80;99.90
1678;DHT22;6034;46.864;15.216;2022-10-16T18:37:50;16.80;99.90
1678;DHT22;6034;46.864;15.216;2022-10-16T18:40:20;16.70;99.90
1678;DHT22;6034;46.864;15.216;2022-10-16T18:42:48;16.80;99.90
1678;DHT22;6034;46.864;15.216;2022-10-16T18:45:15;16.90;99.90
1678;DHT22;6034;46.864;15.216;2022-10-16T18:47:42;17.00;99.90
1678;DHT22;6034;46.864;15.216;2022-10-16T18:50:11;16.90;99.90
1678;DHT22;6034;46.864;15.216;2022-10-16T18:52:38;16.90;99.90
1678;DHT22;6034;46.864;15.216;2022-10-16T18:55:07;16.90;99.90
1678;DHT22;6034;46.864;15.216;2022-10-16T18:57:34;16.90;99.90
1678;DHT22;6034;46.864;15.216;2022-10-16T19:00:02;16.70;99.90
1678;DHT22;6034;46.864;15.216;2022-10-16T19:02:28;16.70;99.90
1678;DHT22;6034;46.864;15.216;2022-10-16T19:04:55;16.60;99.90
1678;DHT22;6034;46.864;15.216;2022-10-16T19:07:23;16.70;99.90
1678;DHT22;6034;46.864;15.216;2022-10-16T19:09:51;16.80;99.90
1678;DHT22;6034;46.864;15.216;2022-10-16T19:12:20;16.80;99.90
1678;DHT22;6034;46.864;15.216;2022-10-16T19:14:47;16.80;99.90
1678;DHT22;6034;46.864;15.216;2022-10-16T19:17:14;16.70;99.90
1678;DHT22;6034;46.864;15.216;2022-10-16T19:19:42;16.70;99.90
1678;DHT22;6034;46.864;15.216;2022-10-16T19:22:11;16.70;99.90
1678;DHT22;6034;46.864;15.216;2022-10-16T19:24:52;16.70;99.90
1678;DHT22;6034;46.864;15.216;2022-10-16T19:27:20;16.70;99.90
1678;DHT22;6034;46.864;15.216;2022-10-16T19:29:47;16.70;99.90
1678;DHT22;6034;46.864;15.216;2022-10-16T19:32:14;16.70;99.90
1678;DHT22;6034;46.864;15.216;2022-10-16T19:34:41;16.50;99.90
1678;DHT22;6034;46.864;15.216;2022-10-16T19:37:10;16.60;99.90
1678;DHT22;6034;46.864;15.216;2022-10-16T19:39:40;16.50;99.90
1678;DHT22;6034;46.864;15.216;2022-10-16T19:42:07;16.50;99.90
1678;DHT22;6034;46.864;15.216;2022-10-16T19:44:35;16.50;99.90
1678;DHT22;6034;46.864;15.216;2022-10-16T19:47:02;16.50;99.90
1678;DHT22;6034;46.864;15.216;2022-10-16T19:49:29;16.40;99.90
1678;DHT22;6034;46.864;15.216;2022-10-16T19:51:57;16.30;99.90
1678;DHT22;6034;46.864;15.216;2022-10-16T19:54:24;16.20;99.90
1678;DHT22;6034;46.864;15.216;2022-10-16T19:56:52;16.10;99.90
1678;DHT22;6034;46.864;15.216;2022-10-16T19:59:19;16.10;99.90
1678;DHT22;6034;46.864;15.216;2022-10-16T20:01:47;16.20;99.90
1678;DHT22;6034;46.864;15.216;2022-10-16T20:04:14;16.20;99.90
1678;DHT22;6034;46.864;15.216;2022-10-16T20:06:41;16.30;99.90
1678;DHT22;6034;46.864;15.216;2022-10-16T20:09:08;16.30;99.90
1678;DHT22;6034;46.864;15.216;2022-10-16T20:11:35;16.40;99.90
1678;DHT22;6034;46.864;15.216;2022-10-16T20:14:02;16.30;99.90
1678;DHT22;6034;46.864;15.216;2022-10-16T20:16:30;16.20;99.90
1678;DHT22;6034;46.864;15.216;2022-10-16T20:18:58;16.00;99.90
1678;DHT22;6034;46.864;15.216;2022-10-16T20:21:27;15.90;99.90
1678;DHT22;6034;46.864;15.216;2022-10-16T20:23:54;15.90;99.90
1678;DHT22;6034;46.864;15.216;2022-10-16T20:26:22;16.00;99.90
1678;DHT22;6034;46.864;15.216;2022-10-16T20:28:50;16.10;99.90
1678;DHT22;6034;46.864;15.216;2022-10-16T20:31:18;16.20;99.90
1678;DHT22;6034;46.864;15.216;2022-10-16T20:33:47;16.10;99.90
1678;DHT22;6034;46.864;15.216;2022-10-16T20:36:16;15.90;99.90
1678;DHT22;6034;46.864;15.216;2022-10-16T20:38:43;16.10;99.90
1678;DHT22;6034;46.864;15.216;2022-10-16T20:41:11;16.10;99.90
1678;DHT22;6034;46.864;15.216;2022-10-16T20:43:38;16.00;99.90
1678;DHT22;6034;46.864;15.216;2022-10-16T20:46:06;15.90;99.90
1678;DHT22;6034;46.864;15.216;2022-10-16T20:48:34;15.80;99.90
1678;DHT22;6034;46.864;15.216;2022-10-16T20:51:09;15.60;99.90
1678;DHT22;6034;46.864;15.216;2022-10-16T20:53:37;15.70;99.90
1678;DHT22;6034;46.864;15.216;2022-10-16T20:56:04;15.80;99.90
1678;DHT22;6034;46.864;15.216;2022-10-16T20:58:33;15.90;99.90
